createdAt,value
2018-05-21T00:00:00.089Z,21.40
2018-05-21T00:01:05.170Z,21.40
2018-05-21T00:02:10.150Z,21.40
2018-05-21T00:03:15.078Z,21.40
2018-05-21T00:04:20.216Z,21.40
2018-05-21T00:05:25.348Z,21.40
2018-05-21T00:06:30.751Z,21.40
2018-05-21T00:07:35.878Z,21.40
2018-05-21T00:08:41.051Z,21.40
2018-05-21T00:09:46.177Z,21.40
2018-05-21T00:10:51.669Z,21.40
2018-05-21T00:11:56.914Z,21.40
2018-05-21T00:13:02.311Z,21.40
2018-05-21T00:14:07.586Z,21.50
2018-05-21T00:15:12.476Z,21.40
2018-05-21T00:16:17.638Z,21.40
2018-05-21T00:17:22.901Z,21.40
2018-05-21T00:18:27.725Z,21.40
2018-05-21T00:19:32.966Z,21.40
2018-05-21T00:20:38.276Z,21.40
2018-05-21T00:21:43.432Z,21.40
2018-05-21T00:22:48.325Z,21.40
2018-05-21T00:23:53.317Z,21.40
2018-05-21T00:24:58.364Z,21.40
2018-05-21T00:26:03.553Z,21.40
2018-05-21T00:27:08.745Z,21.40
2018-05-21T00:28:13.983Z,21.40
2018-05-21T00:29:19.024Z,21.40
2018-05-21T00:30:23.996Z,21.40
2018-05-21T00:31:29.056Z,21.40
2018-05-21T00:32:34.069Z,21.40
2018-05-21T00:33:39.189Z,21.40
2018-05-21T00:34:44.416Z,21.40
2018-05-21T00:35:49.435Z,21.40
2018-05-21T00:36:54.459Z,21.40
2018-05-21T00:37:59.455Z,21.40
2018-05-21T00:39:04.600Z,21.40
2018-05-21T00:40:09.566Z,21.40
2018-05-21T00:41:14.578Z,21.40
2018-05-21T00:42:19.568Z,21.40
2018-05-21T00:43:24.709Z,21.40
2018-05-21T00:44:29.630Z,21.40
2018-05-21T00:45:34.364Z,21.40
2018-05-21T00:46:39.262Z,21.40
2018-05-21T00:47:44.269Z,21.40
2018-05-21T00:48:49.600Z,21.40
2018-05-21T00:49:54.387Z,21.40
2018-05-21T00:50:59.650Z,21.40
2018-05-21T00:52:04.850Z,21.40
2018-05-21T00:53:09.799Z,21.40
2018-05-21T00:54:14.942Z,21.40
2018-05-21T00:55:19.745Z,21.40
2018-05-21T00:56:24.877Z,21.40
2018-05-21T00:57:29.778Z,21.40
2018-05-21T00:58:34.657Z,21.40
2018-05-21T00:59:39.725Z,21.40
2018-05-21T01:00:44.854Z,21.40
2018-05-21T01:01:49.894Z,21.40
2018-05-21T01:02:54.673Z,21.40
2018-05-21T01:03:59.741Z,21.40
2018-05-21T01:05:04.853Z,21.40
2018-05-21T01:06:09.783Z,21.40
2018-05-21T01:07:14.683Z,21.40
2018-05-21T01:08:19.455Z,21.40
2018-05-21T01:09:24.284Z,21.40
2018-05-21T01:10:29.198Z,21.40
2018-05-21T01:11:34.296Z,21.40
2018-05-21T01:12:39.324Z,21.40
2018-05-21T01:13:44.292Z,21.40
2018-05-21T01:14:49.462Z,21.40
2018-05-21T01:15:54.599Z,21.40
2018-05-21T01:16:59.449Z,21.40
2018-05-21T01:18:04.080Z,21.40
2018-05-21T01:19:08.837Z,21.40
2018-05-21T01:20:13.812Z,21.40
2018-05-21T01:21:18.801Z,21.40
2018-05-21T01:22:23.665Z,21.40
2018-05-21T01:23:28.385Z,21.40
2018-05-21T01:24:33.553Z,21.40
2018-05-21T01:25:38.668Z,21.40
2018-05-21T01:26:43.394Z,21.40
2018-05-21T01:27:48.467Z,21.40
2018-05-21T01:28:53.597Z,21.40
2018-05-21T01:29:58.632Z,21.40
2018-05-21T01:31:03.570Z,21.40
2018-05-21T01:32:08.404Z,21.40
2018-05-21T01:33:13.309Z,21.40
2018-05-21T01:34:18.365Z,21.40
2018-05-21T01:35:23.389Z,21.40
2018-05-21T01:36:28.225Z,21.40
2018-05-21T01:37:33.258Z,21.40
2018-05-21T01:38:38.378Z,21.40
2018-05-21T01:39:43.471Z,21.40
2018-05-21T01:40:48.683Z,21.40
2018-05-21T01:41:53.915Z,21.40
2018-05-21T01:42:59.004Z,21.40
2018-05-21T01:44:04.014Z,21.40
2018-05-21T01:45:09.004Z,21.40
2018-05-21T01:46:14.191Z,21.40
2018-05-21T01:47:19.271Z,21.40
2018-05-21T01:48:24.361Z,21.40
2018-05-21T01:49:29.488Z,21.40
2018-05-21T01:50:34.448Z,21.40
2018-05-21T01:51:42.650Z,21.40
2018-05-21T01:52:47.824Z,21.40
2018-05-21T01:53:52.890Z,21.40
2018-05-21T01:54:57.971Z,21.40
2018-05-21T01:56:03.090Z,21.40
2018-05-21T01:57:08.108Z,21.40
2018-05-21T01:58:13.046Z,21.40
2018-05-21T01:59:17.973Z,21.40
2018-05-21T02:00:22.910Z,21.40
2018-05-21T02:01:27.758Z,21.40
2018-05-21T02:02:32.857Z,21.40
2018-05-21T02:03:37.832Z,21.40
2018-05-21T02:04:42.855Z,21.40
2018-05-21T02:05:47.609Z,21.40
2018-05-21T02:06:52.705Z,21.40
2018-05-21T02:07:57.847Z,21.40
2018-05-21T02:09:02.675Z,21.40
2018-05-21T02:10:07.705Z,21.40
2018-05-21T02:11:12.580Z,21.40
2018-05-21T02:12:17.649Z,21.40
2018-05-21T02:13:22.569Z,21.40
2018-05-21T02:14:27.494Z,21.40
2018-05-21T02:15:32.389Z,21.40
2018-05-21T02:16:37.337Z,21.40
2018-05-21T02:17:42.230Z,21.40
2018-05-21T02:18:47.226Z,21.40
2018-05-21T02:19:52.342Z,21.40
2018-05-21T02:20:57.191Z,21.40
2018-05-21T02:22:02.420Z,21.40
2018-05-21T02:23:07.618Z,21.40
2018-05-21T02:24:12.658Z,21.40
2018-05-21T02:25:17.844Z,21.40
2018-05-21T02:26:22.756Z,21.40
2018-05-21T02:27:27.529Z,21.40
2018-05-21T02:28:32.553Z,21.40
2018-05-21T02:29:37.547Z,21.40
2018-05-21T02:30:42.586Z,21.40
2018-05-21T02:31:47.714Z,21.40
2018-05-21T02:32:52.856Z,21.40
2018-05-21T02:33:57.924Z,21.40
2018-05-21T02:35:03.006Z,21.40
2018-05-21T02:36:07.747Z,21.40
2018-05-21T02:37:12.951Z,21.40
2018-05-21T02:38:17.723Z,21.40
2018-05-21T02:39:22.678Z,21.40
2018-05-21T02:40:28.011Z,21.40
2018-05-21T02:41:33.203Z,21.40
2018-05-21T02:42:38.414Z,21.40
2018-05-21T02:43:43.591Z,21.30
2018-05-21T02:44:48.479Z,21.40
2018-05-21T02:45:53.369Z,21.40
2018-05-21T02:46:58.492Z,21.40
2018-05-21T02:48:03.473Z,21.30
2018-05-21T02:49:08.550Z,21.40
2018-05-21T02:50:13.244Z,21.30
2018-05-21T02:51:18.270Z,21.30
2018-05-21T02:52:23.280Z,21.40
2018-05-21T02:53:28.363Z,21.30
2018-05-21T02:54:33.680Z,21.40
2018-05-21T02:55:38.810Z,21.30
2018-05-21T02:56:43.818Z,21.30
2018-05-21T02:57:48.756Z,21.30
2018-05-21T02:58:53.866Z,21.40
2018-05-21T02:59:58.685Z,21.30
2018-05-21T03:01:03.608Z,21.30
2018-05-21T03:02:08.683Z,21.30
2018-05-21T03:03:13.926Z,21.30
2018-05-21T03:04:18.743Z,21.30
2018-05-21T03:05:23.910Z,21.30
2018-05-21T03:06:28.706Z,21.30
2018-05-21T03:07:33.921Z,21.30
2018-05-21T03:08:38.984Z,21.30
2018-05-21T03:09:43.700Z,21.30
2018-05-21T03:10:48.758Z,21.30
2018-05-21T03:11:53.765Z,21.30
2018-05-21T03:12:58.657Z,21.30
2018-05-21T03:14:03.391Z,21.30
2018-05-21T03:15:08.253Z,21.30
2018-05-21T03:16:13.045Z,21.30
2018-05-21T03:17:18.157Z,21.30
2018-05-21T03:18:22.961Z,21.40
2018-05-21T03:19:28.063Z,21.30
2018-05-21T03:20:32.718Z,21.30
2018-05-21T03:21:37.674Z,21.30
2018-05-21T03:22:42.629Z,21.30
2018-05-21T03:23:47.713Z,21.30
2018-05-21T03:24:52.559Z,21.30
2018-05-21T03:25:57.623Z,21.30
2018-05-21T03:27:02.545Z,21.30
2018-05-21T03:28:07.378Z,21.30
2018-05-21T03:29:12.131Z,21.30
2018-05-21T03:30:17.064Z,21.30
2018-05-21T03:31:22.207Z,21.30
2018-05-21T03:32:27.097Z,21.30
2018-05-21T03:33:32.282Z,21.30
2018-05-21T03:34:37.291Z,21.30
2018-05-21T03:35:42.551Z,21.30
2018-05-21T03:36:47.433Z,21.30
2018-05-21T03:37:52.433Z,21.30
2018-05-21T03:38:57.669Z,21.30
2018-05-21T03:40:02.856Z,21.30
2018-05-21T03:41:07.793Z,21.30
2018-05-21T03:42:12.601Z,21.30
2018-05-21T03:43:17.774Z,21.30
2018-05-21T03:44:22.954Z,21.30
2018-05-21T03:45:28.154Z,21.30
2018-05-21T03:46:32.992Z,21.30
2018-05-21T03:47:38.013Z,21.30
2018-05-21T03:48:43.051Z,21.30
2018-05-21T03:49:47.989Z,21.30
2018-05-21T03:50:52.778Z,21.30
2018-05-21T03:51:57.991Z,21.30
2018-05-21T03:53:03.165Z,21.30
2018-05-21T03:54:08.042Z,21.30
2018-05-21T03:55:13.069Z,21.30
2018-05-21T03:56:18.082Z,21.30
2018-05-21T03:57:22.908Z,21.30
2018-05-21T03:58:27.968Z,21.30
2018-05-21T03:59:32.906Z,21.30
2018-05-21T04:00:38.013Z,21.30
2018-05-21T04:01:43.011Z,21.30
2018-05-21T04:02:47.891Z,21.30
2018-05-21T04:03:52.817Z,21.30
2018-05-21T04:04:57.856Z,21.30
2018-05-21T04:06:02.770Z,21.30
2018-05-21T04:07:07.566Z,21.30
2018-05-21T04:08:12.503Z,21.30
2018-05-21T04:09:17.581Z,21.30
2018-05-21T04:10:22.347Z,21.30
2018-05-21T04:11:27.660Z,21.30
2018-05-21T04:12:32.384Z,21.30
2018-05-21T04:13:37.332Z,21.30
2018-05-21T04:14:42.548Z,21.30
2018-05-21T04:15:47.658Z,21.30
2018-05-21T04:16:52.818Z,21.30
2018-05-21T04:17:57.724Z,21.30
2018-05-21T04:19:02.604Z,21.30
2018-05-21T04:20:07.604Z,21.30
2018-05-21T04:21:12.626Z,21.30
2018-05-21T04:22:17.721Z,21.30
2018-05-21T04:23:22.728Z,21.30
2018-05-21T04:24:27.842Z,21.30
2018-05-21T04:25:33.031Z,21.30
2018-05-21T04:26:38.008Z,21.30
2018-05-21T04:27:42.740Z,21.30
2018-05-21T04:28:47.505Z,21.30
2018-05-21T04:29:52.491Z,21.30
2018-05-21T04:30:57.506Z,21.30
2018-05-21T04:32:02.515Z,21.30
2018-05-21T04:33:07.760Z,21.30
2018-05-21T04:34:12.668Z,21.30
2018-05-21T04:35:17.389Z,21.30
2018-05-21T04:36:22.531Z,21.30
2018-05-21T04:37:27.231Z,21.30
2018-05-21T04:38:32.376Z,21.30
2018-05-21T04:39:37.368Z,21.30
2018-05-21T04:40:42.309Z,21.30
2018-05-21T04:41:47.516Z,21.30
2018-05-21T04:42:52.730Z,21.30
2018-05-21T04:43:57.771Z,21.30
2018-05-21T04:45:02.899Z,21.30
2018-05-21T04:46:08.112Z,21.30
2018-05-21T04:47:13.374Z,21.30
2018-05-21T04:48:18.511Z,21.30
2018-05-21T04:49:23.635Z,21.30
2018-05-21T04:50:28.583Z,21.30
2018-05-21T04:51:33.652Z,21.30
2018-05-21T04:52:39.032Z,21.30
2018-05-21T04:53:43.897Z,21.30
2018-05-21T04:54:49.071Z,21.30
2018-05-21T04:55:54.132Z,21.30
2018-05-21T04:56:59.003Z,21.30
2018-05-21T04:58:04.062Z,21.30
2018-05-21T04:59:09.346Z,21.30
2018-05-21T05:00:14.351Z,21.30
2018-05-21T05:01:19.392Z,21.30
2018-05-21T05:02:24.478Z,21.30
2018-05-21T05:03:29.614Z,21.30
2018-05-21T05:04:34.711Z,21.30
2018-05-21T05:05:39.644Z,21.30
2018-05-21T05:06:44.601Z,21.30
2018-05-21T05:07:49.908Z,21.30
2018-05-21T05:08:54.842Z,21.30
2018-05-21T05:09:59.813Z,21.30
2018-05-21T05:11:04.778Z,21.30
2018-05-21T05:12:09.791Z,21.30
2018-05-21T05:13:14.943Z,21.30
2018-05-21T05:14:20.137Z,21.30
2018-05-21T05:15:25.159Z,21.30
2018-05-21T05:16:30.147Z,21.30
2018-05-21T05:17:35.021Z,21.30
2018-05-21T05:18:40.026Z,21.30
2018-05-21T05:19:45.181Z,21.30
2018-05-21T05:20:50.073Z,21.30
2018-05-21T05:21:55.010Z,21.30
2018-05-21T05:22:59.995Z,21.30
2018-05-21T05:24:04.773Z,21.30
2018-05-21T05:25:09.878Z,21.30
2018-05-21T05:26:14.943Z,21.30
2018-05-21T05:27:20.116Z,21.30
2018-05-21T05:28:25.243Z,21.30
2018-05-21T05:29:30.149Z,21.30
2018-05-21T05:30:35.088Z,21.30
2018-05-21T05:31:39.898Z,21.30
2018-05-21T05:32:44.815Z,21.30
2018-05-21T05:33:49.986Z,21.30
2018-05-21T05:34:54.871Z,21.30
2018-05-21T05:35:59.764Z,21.30
2018-05-21T05:37:04.699Z,21.30
2018-05-21T05:38:09.773Z,21.30
2018-05-21T05:39:14.687Z,21.30
2018-05-21T05:40:19.661Z,21.30
2018-05-21T05:41:24.617Z,21.30
2018-05-21T05:42:29.883Z,21.30
2018-05-21T05:43:34.971Z,21.30
2018-05-21T05:44:40.212Z,21.30
2018-05-21T05:45:44.938Z,21.40
2018-05-21T05:46:50.046Z,21.30
2018-05-21T05:47:55.269Z,21.40
2018-05-21T05:49:00.320Z,21.40
2018-05-21T05:50:05.283Z,21.30
2018-05-21T05:51:10.454Z,21.40
2018-05-21T05:52:15.599Z,21.40
2018-05-21T05:53:20.844Z,21.30
2018-05-21T05:54:25.928Z,21.40
2018-05-21T05:55:30.913Z,21.30
2018-05-21T05:56:35.900Z,21.40
2018-05-21T05:57:41.066Z,21.40
2018-05-21T05:58:46.311Z,21.40
2018-05-21T05:59:51.550Z,21.40
2018-05-21T06:00:56.803Z,21.40
2018-05-21T06:02:02.106Z,21.30
2018-05-21T06:03:07.503Z,21.30
2018-05-21T06:04:12.354Z,21.30
2018-05-21T06:05:17.363Z,21.40
2018-05-21T06:06:22.573Z,21.30
2018-05-21T06:07:27.556Z,21.30
2018-05-21T06:08:33.231Z,21.30
2018-05-21T06:09:38.406Z,21.30
2018-05-21T06:10:43.517Z,21.30
2018-05-21T06:11:48.668Z,21.40
2018-05-21T06:12:53.800Z,21.40
2018-05-21T06:13:58.840Z,21.40
2018-05-21T06:15:03.916Z,21.40
2018-05-21T06:16:08.700Z,21.40
2018-05-21T06:17:13.483Z,21.40
2018-05-21T06:18:18.526Z,21.40
2018-05-21T06:19:23.415Z,21.30
2018-05-21T06:20:28.279Z,21.30
2018-05-21T06:21:33.081Z,21.30
2018-05-21T06:22:38.032Z,21.30
2018-05-21T06:23:43.125Z,21.30
2018-05-21T06:24:48.133Z,21.30
2018-05-21T06:25:53.344Z,21.30
2018-05-21T06:26:58.941Z,21.20
2018-05-21T06:28:03.884Z,21.20
2018-05-21T06:29:09.002Z,21.20
2018-05-21T06:30:15.185Z,21.20
2018-05-21T06:31:20.478Z,21.20
2018-05-21T06:32:25.435Z,21.20
2018-05-21T06:33:30.398Z,21.30
2018-05-21T06:34:35.696Z,21.30
2018-05-21T06:35:40.595Z,21.30
2018-05-21T06:36:45.600Z,21.30
2018-05-21T06:37:50.430Z,21.40
2018-05-21T06:38:55.356Z,21.40
2018-05-21T06:40:00.368Z,21.40
2018-05-21T06:41:05.246Z,21.40
2018-05-21T06:42:10.331Z,21.40
2018-05-21T06:43:15.566Z,21.40
2018-05-21T06:44:20.444Z,21.40
2018-05-21T06:45:25.326Z,21.40
2018-05-21T06:46:30.570Z,21.40
2018-05-21T06:47:35.387Z,21.40
2018-05-21T06:48:40.315Z,21.40
2018-05-21T06:49:45.202Z,21.40
2018-05-21T06:50:50.194Z,21.40
2018-05-21T06:51:55.437Z,21.40
2018-05-21T06:53:00.362Z,21.40
2018-05-21T06:54:05.437Z,21.40
2018-05-21T06:55:10.837Z,21.40
2018-05-21T06:56:16.134Z,21.40
2018-05-21T06:57:21.254Z,21.40
2018-05-21T06:58:26.290Z,21.40
2018-05-21T06:59:31.596Z,21.40
2018-05-21T07:00:36.943Z,21.40
2018-05-21T07:01:42.157Z,21.40
2018-05-21T07:02:46.932Z,21.40
2018-05-21T07:03:52.133Z,21.40
2018-05-21T07:04:57.225Z,21.40
2018-05-21T07:06:02.243Z,21.40
2018-05-21T07:07:07.203Z,21.40
2018-05-21T07:08:12.081Z,21.40
2018-05-21T07:09:17.522Z,21.40
2018-05-21T07:10:22.660Z,21.40
2018-05-21T07:11:27.847Z,21.40
2018-05-21T07:12:32.766Z,21.40
2018-05-21T07:13:37.563Z,21.40
2018-05-21T07:14:42.589Z,21.40
2018-05-21T07:15:47.589Z,21.40
2018-05-21T07:16:53.440Z,21.40
2018-05-21T07:17:58.493Z,21.40
2018-05-21T07:19:03.235Z,21.40
2018-05-21T07:20:08.323Z,21.40
2018-05-21T07:21:13.430Z,21.40
2018-05-21T07:22:18.376Z,21.40
2018-05-21T07:23:24.065Z,21.40
2018-05-21T07:24:29.281Z,21.40
2018-05-21T07:25:34.407Z,21.40
2018-05-21T07:26:39.183Z,21.40
2018-05-21T07:27:43.995Z,21.40
2018-05-21T07:28:48.779Z,21.40
2018-05-21T07:29:53.715Z,21.40
2018-05-21T07:30:58.448Z,21.50
2018-05-21T07:32:03.479Z,21.50
2018-05-21T07:33:08.189Z,21.50
2018-05-21T07:34:13.334Z,21.50
2018-05-21T07:35:18.312Z,21.50
2018-05-21T07:36:23.502Z,21.50
2018-05-21T07:37:28.300Z,21.40
2018-05-21T07:38:33.593Z,21.40
2018-05-21T07:39:38.512Z,21.40
2018-05-21T07:40:43.586Z,21.40
2018-05-21T07:41:48.779Z,21.40
2018-05-21T07:42:53.886Z,21.40
2018-05-21T07:43:59.174Z,21.40
2018-05-21T07:45:04.312Z,21.40
2018-05-21T07:46:09.137Z,21.40
2018-05-21T07:47:14.386Z,21.40
2018-05-21T07:48:19.353Z,21.40
2018-05-21T07:49:24.336Z,21.40
2018-05-21T07:50:29.729Z,21.40
2018-05-21T07:51:34.828Z,21.40
2018-05-21T07:52:41.494Z,21.40
2018-05-21T07:53:46.597Z,21.40
2018-05-21T07:54:51.550Z,21.40
2018-05-21T07:55:56.767Z,21.40
2018-05-21T07:57:01.866Z,21.40
2018-05-21T07:58:07.009Z,21.40
2018-05-21T07:59:11.983Z,21.40
2018-05-21T08:00:17.167Z,21.40
2018-05-21T08:01:22.303Z,21.40
2018-05-21T08:02:27.677Z,21.40
2018-05-21T08:03:32.729Z,21.40
2018-05-21T08:04:37.795Z,21.40
2018-05-21T08:05:42.821Z,21.40
2018-05-21T08:06:47.698Z,21.40
2018-05-21T08:07:53.034Z,21.40
2018-05-21T08:08:58.258Z,21.40
2018-05-21T08:10:03.217Z,21.40
2018-05-21T08:11:08.327Z,21.40
2018-05-21T08:12:13.642Z,21.40
2018-05-21T08:13:18.786Z,21.40
2018-05-21T08:14:24.028Z,21.40
2018-05-21T08:15:28.970Z,21.40
2018-05-21T08:16:34.037Z,21.40
2018-05-21T08:17:39.087Z,21.40
2018-05-21T08:18:44.793Z,21.40
2018-05-21T08:19:49.850Z,21.40
2018-05-21T08:20:54.570Z,21.40
2018-05-21T08:21:59.331Z,21.40
2018-05-21T08:23:04.459Z,21.40
2018-05-21T08:24:09.466Z,21.40
2018-05-21T08:25:14.449Z,21.40
2018-05-21T08:26:19.195Z,21.40
2018-05-21T08:27:24.014Z,21.40
2018-05-21T08:28:28.942Z,21.40
2018-05-21T08:29:33.799Z,21.40
2018-05-21T08:30:38.590Z,21.40
2018-05-21T08:31:43.496Z,21.40
2018-05-21T08:32:48.474Z,21.40
2018-05-21T08:33:53.325Z,21.40
2018-05-21T08:34:58.626Z,21.40
2018-05-21T08:36:03.611Z,21.40
2018-05-21T08:37:08.550Z,21.40
2018-05-21T08:38:13.618Z,21.40
2018-05-21T08:39:18.512Z,21.40
2018-05-21T08:40:23.518Z,21.40
2018-05-21T08:41:28.689Z,21.40
2018-05-21T08:42:33.566Z,21.40
2018-05-21T08:43:38.680Z,21.40
2018-05-21T08:44:43.591Z,21.40
2018-05-21T08:45:48.485Z,21.40
2018-05-21T08:46:53.298Z,21.40
2018-05-21T08:47:58.365Z,21.40
2018-05-21T08:49:03.330Z,21.40
2018-05-21T08:50:08.256Z,21.40
2018-05-21T08:51:13.360Z,21.40
2018-05-21T08:52:18.368Z,21.40
2018-05-21T08:53:23.375Z,21.40
2018-05-21T08:54:28.305Z,21.40
2018-05-21T08:55:33.061Z,21.40
2018-05-21T08:56:37.936Z,21.40
2018-05-21T08:57:42.892Z,21.40
2018-05-21T08:58:47.851Z,21.40
2018-05-21T08:59:52.651Z,21.40
2018-05-21T09:00:57.710Z,21.40
2018-05-21T09:02:02.854Z,21.50
2018-05-21T09:03:07.886Z,21.40
2018-05-21T09:04:13.049Z,21.50
2018-05-21T09:05:17.900Z,21.50
2018-05-21T09:06:22.914Z,21.50
2018-05-21T09:07:27.823Z,21.50
2018-05-21T09:08:32.732Z,21.50
2018-05-21T09:09:37.618Z,21.50
2018-05-21T09:10:42.628Z,21.50
2018-05-21T09:11:47.741Z,21.50
2018-05-21T09:12:52.651Z,21.50
2018-05-21T09:13:57.685Z,21.50
2018-05-21T09:15:02.478Z,21.50
2018-05-21T09:16:07.600Z,21.50
2018-05-21T09:17:12.557Z,21.50
2018-05-21T09:18:17.269Z,21.50
2018-05-21T09:19:22.006Z,21.50
2018-05-21T09:20:27.578Z,21.50
2018-05-21T09:21:32.508Z,21.50
2018-05-21T09:22:37.681Z,21.50
2018-05-21T09:23:42.441Z,21.50
2018-05-21T09:24:47.488Z,21.50
2018-05-21T09:25:52.472Z,21.50
2018-05-21T09:26:57.454Z,21.50
2018-05-21T09:28:02.302Z,21.50
2018-05-21T09:29:07.356Z,21.50
2018-05-21T09:30:12.352Z,21.50
2018-05-21T09:31:17.141Z,21.50
2018-05-21T09:32:21.891Z,21.50
2018-05-21T09:33:26.843Z,21.50
2018-05-21T09:34:31.836Z,21.50
2018-05-21T09:35:36.597Z,21.50
2018-05-21T09:36:41.464Z,21.50
2018-05-21T09:37:46.485Z,21.50
2018-05-21T09:38:51.477Z,21.50
2018-05-21T09:39:56.536Z,21.50
2018-05-21T09:41:01.462Z,21.50
2018-05-21T09:42:06.494Z,21.50
2018-05-21T09:43:11.425Z,21.50
2018-05-21T09:44:16.428Z,21.50
2018-05-21T09:45:21.248Z,21.50
2018-05-21T09:46:26.221Z,21.50
2018-05-21T09:47:31.162Z,21.50
2018-05-21T09:48:36.314Z,21.50
2018-05-21T09:49:41.385Z,21.50
2018-05-21T09:50:46.536Z,21.50
2018-05-21T09:51:51.476Z,21.50
2018-05-21T09:52:56.434Z,21.50
2018-05-21T09:54:01.654Z,21.50
2018-05-21T09:55:06.947Z,21.50
2018-05-21T09:56:12.155Z,21.50
2018-05-21T09:57:17.033Z,21.60
2018-05-21T09:58:21.927Z,21.60
2018-05-21T09:59:27.100Z,21.60
2018-05-21T10:00:31.928Z,21.60
2018-05-21T10:01:36.800Z,21.50
2018-05-21T10:02:41.717Z,21.50
2018-05-21T10:03:46.644Z,21.50
2018-05-21T10:04:51.691Z,21.50
2018-05-21T10:05:56.682Z,21.60
2018-05-21T10:07:01.815Z,21.60
2018-05-21T10:08:06.706Z,21.60
2018-05-21T10:09:11.676Z,21.60
2018-05-21T10:10:16.525Z,21.60
2018-05-21T10:11:21.625Z,21.60
2018-05-21T10:12:26.681Z,21.60
2018-05-21T10:13:31.800Z,21.60
2018-05-21T10:14:36.457Z,21.60
2018-05-21T10:15:41.087Z,21.60
2018-05-21T10:16:46.159Z,21.60
2018-05-21T10:17:50.888Z,21.60
2018-05-21T10:18:55.593Z,21.60
2018-05-21T10:20:00.416Z,21.60
2018-05-21T10:21:05.322Z,21.60
2018-05-21T10:22:10.212Z,21.60
2018-05-21T10:23:15.075Z,21.60
2018-05-21T10:24:19.756Z,21.60
2018-05-21T10:25:24.616Z,21.60
2018-05-21T10:26:29.800Z,21.60
2018-05-21T10:27:34.512Z,21.60
2018-05-21T10:28:39.550Z,21.60
2018-05-21T10:29:44.583Z,21.60
2018-05-21T10:30:49.328Z,21.60
2018-05-21T10:31:54.268Z,21.60
2018-05-21T10:32:59.174Z,21.60
2018-05-21T10:34:04.225Z,21.60
2018-05-21T10:35:09.249Z,21.60
2018-05-21T10:36:14.322Z,21.60
2018-05-21T10:37:19.395Z,21.60
2018-05-21T10:38:24.484Z,21.60
2018-05-21T10:39:29.486Z,21.60
2018-05-21T10:40:34.535Z,21.60
2018-05-21T10:41:39.585Z,21.60
2018-05-21T10:42:44.704Z,21.60
2018-05-21T10:43:49.609Z,21.60
2018-05-21T10:44:54.582Z,21.60
2018-05-21T10:45:59.721Z,21.70
2018-05-21T10:47:04.557Z,21.70
2018-05-21T10:48:09.638Z,21.70
2018-05-21T10:49:14.616Z,21.70
2018-05-21T10:50:19.651Z,21.70
2018-05-21T10:51:24.777Z,21.70
2018-05-21T10:52:29.884Z,21.70
2018-05-21T10:53:35.009Z,21.80
2018-05-21T10:54:40.031Z,21.80
2018-05-21T10:55:45.286Z,21.80
2018-05-21T10:56:50.371Z,21.80
2018-05-21T10:57:55.482Z,21.80
2018-05-21T10:59:00.348Z,21.80
2018-05-21T11:00:05.491Z,21.80
2018-05-21T11:01:10.500Z,21.80
2018-05-21T11:02:15.661Z,21.80
2018-05-21T11:03:20.404Z,21.80
2018-05-21T11:04:25.177Z,21.80
2018-05-21T11:05:30.286Z,21.80
2018-05-21T11:06:35.025Z,21.80
2018-05-21T11:07:40.147Z,21.80
2018-05-21T11:08:45.057Z,21.80
2018-05-21T11:09:50.100Z,21.80
2018-05-21T11:10:54.885Z,21.80
2018-05-21T11:11:59.782Z,21.80
2018-05-21T11:13:04.733Z,21.80
2018-05-21T11:14:09.833Z,21.80
2018-05-21T11:15:14.764Z,21.80
2018-05-21T11:16:19.801Z,21.80
2018-05-21T11:17:24.975Z,21.80
2018-05-21T11:18:30.308Z,21.80
2018-05-21T11:19:35.201Z,21.80
2018-05-21T11:20:40.432Z,21.80
2018-05-21T11:21:45.336Z,21.80
2018-05-21T11:22:50.479Z,21.80
2018-05-21T11:23:55.519Z,21.80
2018-05-21T11:25:00.881Z,21.80
2018-05-21T11:26:06.967Z,21.80
2018-05-21T11:27:12.543Z,21.80
2018-05-21T11:28:17.735Z,21.90
2018-05-21T11:29:22.839Z,21.90
2018-05-21T11:30:28.110Z,21.90
2018-05-21T11:31:33.295Z,21.90
2018-05-21T11:32:38.523Z,21.90
2018-05-21T11:33:43.658Z,21.90
2018-05-21T11:34:49.083Z,21.90
2018-05-21T11:35:54.334Z,21.90
2018-05-21T11:36:59.673Z,21.90
2018-05-21T11:38:05.088Z,21.90
2018-05-21T11:39:10.014Z,21.90
2018-05-21T11:40:15.308Z,21.90
2018-05-21T11:41:20.518Z,21.90
2018-05-21T11:42:25.586Z,21.90
2018-05-21T11:43:30.877Z,21.90
2018-05-21T11:44:36.703Z,21.90
2018-05-21T11:45:42.010Z,21.90
2018-05-21T11:46:47.451Z,21.90
2018-05-21T11:47:53.776Z,21.90
2018-05-21T11:48:58.969Z,21.90
2018-05-21T11:50:04.385Z,21.90
2018-05-21T11:51:09.328Z,21.90
2018-05-21T11:52:14.899Z,21.90
2018-05-21T11:53:20.168Z,22.00
2018-05-21T11:54:25.525Z,22.00
2018-05-21T11:55:30.702Z,21.90
2018-05-21T11:56:35.610Z,21.90
2018-05-21T11:57:40.533Z,22.00
2018-05-21T11:58:45.690Z,21.90
2018-05-21T11:59:50.729Z,21.90
2018-05-21T12:00:55.541Z,21.90
2018-05-21T12:02:00.604Z,21.90
2018-05-21T12:03:05.518Z,21.90
2018-05-21T12:04:10.541Z,21.90
2018-05-21T12:05:15.770Z,21.90
2018-05-21T12:06:20.730Z,21.90
2018-05-21T12:07:25.587Z,21.90
2018-05-21T12:08:30.804Z,21.90
2018-05-21T12:09:35.766Z,21.90
2018-05-21T12:10:40.679Z,21.90
2018-05-21T12:11:45.554Z,21.90
2018-05-21T12:12:50.474Z,21.90
2018-05-21T12:13:55.561Z,21.90
2018-05-21T12:15:00.495Z,21.90
2018-05-21T12:16:05.695Z,21.90
2018-05-21T12:17:11.276Z,21.90
2018-05-21T12:18:16.427Z,21.90
2018-05-21T12:19:21.616Z,21.90
2018-05-21T12:20:26.542Z,21.90
2018-05-21T12:21:31.666Z,21.90
2018-05-21T12:22:36.445Z,21.90
2018-05-21T12:23:41.335Z,21.90
2018-05-21T12:24:46.261Z,21.90
2018-05-21T12:25:51.214Z,21.90
2018-05-21T12:26:56.146Z,21.90
2018-05-21T12:28:01.155Z,22.00
2018-05-21T12:29:06.317Z,22.00
2018-05-21T12:30:11.198Z,22.00
2018-05-21T12:31:16.022Z,22.00
2018-05-21T12:32:20.771Z,22.00
2018-05-21T12:33:25.487Z,22.00
2018-05-21T12:34:30.572Z,22.00
2018-05-21T12:35:35.805Z,22.00
2018-05-21T12:36:40.809Z,22.10
2018-05-21T12:37:45.895Z,22.00
2018-05-21T12:38:50.955Z,22.00
2018-05-21T12:39:56.339Z,22.00
2018-05-21T12:41:01.412Z,22.00
2018-05-21T12:42:06.551Z,22.00
2018-05-21T12:43:11.665Z,22.10
2018-05-21T12:44:17.025Z,22.10
2018-05-21T12:45:22.127Z,22.10
2018-05-21T12:46:27.064Z,22.10
2018-05-21T12:47:32.099Z,22.10
2018-05-21T12:48:37.143Z,22.10
2018-05-21T12:49:42.397Z,22.10
2018-05-21T12:50:47.595Z,22.20
2018-05-21T12:51:53.196Z,22.30
2018-05-21T12:52:58.219Z,22.30
2018-05-21T12:54:03.140Z,22.40
2018-05-21T12:55:08.283Z,22.30
2018-05-21T12:56:13.195Z,22.30
2018-05-21T12:57:18.360Z,22.30
2018-05-21T12:58:23.328Z,22.30
2018-05-21T12:59:28.432Z,22.30
2018-05-21T13:00:33.404Z,22.20
2018-05-21T13:01:38.223Z,22.20
2018-05-21T13:02:43.340Z,22.20
2018-05-21T13:03:48.411Z,22.20
2018-05-21T13:04:53.339Z,22.20
2018-05-21T13:05:58.140Z,22.20
2018-05-21T13:07:03.049Z,22.20
2018-05-21T13:08:07.945Z,22.20
2018-05-21T13:09:12.696Z,22.20
2018-05-21T13:10:17.715Z,22.20
2018-05-21T13:11:22.780Z,22.20
2018-05-21T13:12:27.681Z,22.20
2018-05-21T13:13:32.385Z,22.20
2018-05-21T13:14:37.201Z,22.20
2018-05-21T13:15:42.135Z,22.20
2018-05-21T13:16:47.437Z,22.20
2018-05-21T13:17:52.173Z,22.20
2018-05-21T13:18:57.355Z,22.20
2018-05-21T13:20:03.435Z,22.20
2018-05-21T13:21:08.239Z,22.20
2018-05-21T13:22:12.928Z,22.20
2018-05-21T13:23:18.134Z,22.20
2018-05-21T13:24:23.194Z,22.30
2018-05-21T13:25:28.058Z,22.30
2018-05-21T13:26:33.261Z,22.30
2018-05-21T13:27:38.345Z,22.30
2018-05-21T13:28:43.245Z,22.30
2018-05-21T13:29:48.273Z,22.30
2018-05-21T13:30:53.260Z,22.30
2018-05-21T13:31:58.307Z,22.30
2018-05-21T13:33:03.458Z,22.30
2018-05-21T13:34:08.465Z,22.30
2018-05-21T13:35:13.397Z,22.30
2018-05-21T13:36:18.712Z,22.30
2018-05-21T13:37:23.721Z,22.30
2018-05-21T13:38:28.737Z,22.30
2018-05-21T13:39:33.736Z,22.30
2018-05-21T13:40:38.548Z,22.30
2018-05-21T13:41:43.760Z,22.30
2018-05-21T13:42:49.082Z,22.30
2018-05-21T13:43:54.293Z,22.30
2018-05-21T13:44:59.734Z,22.30
2018-05-21T13:46:05.141Z,22.30
2018-05-21T13:47:10.175Z,22.30
2018-05-21T13:48:15.365Z,22.30
2018-05-21T13:49:20.769Z,22.30
2018-05-21T13:50:25.663Z,22.30
2018-05-21T13:51:30.491Z,22.30
2018-05-21T13:52:35.874Z,22.30
2018-05-21T13:53:41.132Z,22.30
2018-05-21T13:54:46.096Z,22.30
2018-05-21T13:55:51.275Z,22.30
2018-05-21T13:56:56.439Z,22.30